JBU882 TLPL-KJFK
Flight info
| Callsign | JBU882 |
|---|---|
| Flight time | 4h 37m |
| Altitude | 30000 |
| Route | DELNU UL329 SORRL UL454 ILURI L454 PANMO Y292 FIPEK Y439 SLUKA L452 LNHOM/M079F300 L452 OXANA/N0473F300 AR8 ECG/N0460F350 DCT KALDA Q108 SIE CAMRN5 |
| Aircraft | A21N/M-SDE3FGHIRWY/LB1 |
Departure
| Time | 2026-05-06 22:56 |
|---|---|
| Airport | Hewanorra International Airport (TLPL) |
Arrival
| Time | 2026-05-07 03:33 |
|---|---|
| Airport | John F. Kennedy International Airport (KJFK) |
| Time | Latitude | Longitude | Altitude | Speed | Heading |
|---|---|---|---|---|---|
| 2026-05-06 22:40 | 13.73592 | -60.95074 | 33 ft | 0 kts | 360° |
| 2026-05-06 22:47 | 13.73584 | -60.95074 | 33 ft | 0 kts | 360° |
| 2026-05-06 22:48 | 13.73572 | -60.95073 | 33 ft | 2 kts | 349° |
| 2026-05-06 22:48 | 13.73558 | -60.95069 | 33 ft | 2 kts | 336° |
| 2026-05-06 22:48 | 13.73545 | -60.95061 | 33 ft | 2 kts | 322° |
| 2026-05-06 22:48 | 13.73534 | -60.95051 | 33 ft | 2 kts | 309° |
| 2026-05-06 22:49 | 13.73525 | -60.95038 | 34 ft | 2 kts | 296° |
| 2026-05-06 22:49 | 13.73520 | -60.95024 | 33 ft | 2 kts | 282° |
| 2026-05-06 22:49 | 13.73518 | -60.95011 | 33 ft | 0 kts | 272° |
| 2026-05-06 22:49 | 13.73518 | -60.95005 | 33 ft | 0 kts | 269° |
| 2026-05-06 22:51 | 13.73519 | -60.95023 | 33 ft | 9 kts | 270° |
| 2026-05-06 22:52 | 13.73519 | -60.95103 | 33 ft | 8 kts | 269° |
| 2026-05-06 22:52 | 13.73503 | -60.95138 | 33 ft | 5 kts | 217° |
| 2026-05-06 22:52 | 13.73460 | -60.95153 | 33 ft | 7 kts | 186° |
| 2026-05-06 22:52 | 13.73395 | -60.95154 | 32 ft | 12 kts | 179° |
| 2026-05-06 22:53 | 13.73344 | -60.95200 | 31 ft | 10 kts | 258° |
| 2026-05-06 22:53 | 13.73338 | -60.95310 | 31 ft | 21 kts | 270° |
| 2026-05-06 22:53 | 13.73338 | -60.95471 | 30 ft | 25 kts | 270° |
| 2026-05-06 22:53 | 13.73338 | -60.95655 | 30 ft | 25 kts | 270° |
| 2026-05-06 22:54 | 13.73338 | -60.95849 | 30 ft | 27 kts | 270° |
| 2026-05-06 22:54 | 13.73338 | -60.96036 | 30 ft | 25 kts | 270° |
| 2026-05-06 22:54 | 13.73338 | -60.96225 | 27 ft | 27 kts | 270° |
| 2026-05-06 22:54 | 13.73337 | -60.96415 | 27 ft | 25 kts | 269° |
| 2026-05-06 22:55 | 13.73353 | -60.96481 | 28 ft | 5 kts | 312° |
| 2026-05-06 22:55 | 13.73361 | -60.96516 | 28 ft | 6 kts | 248° |
| 2026-05-06 22:55 | 13.73337 | -60.96521 | 27 ft | 4 kts | 98° |
| 2026-05-06 22:55 | 13.73338 | -60.96476 | 27 ft | 12 kts | 90° |
| 2026-05-06 22:56 | 13.73338 | -60.96130 | 28 ft | 82 kts | 89° |
| 2026-05-06 22:56 | 13.73338 | -60.95319 | 31 ft | 141 kts | 90° |
| 2026-05-06 22:56 | 13.73340 | -60.94173 | 227 ft | 169 kts | 88° |
| 2026-05-06 22:56 | 13.73357 | -60.93012 | 961 ft | 161 kts | 88° |
| 2026-05-06 22:57 | 13.73373 | -60.91903 | 1678 ft | 155 kts | 88° |
| 2026-05-06 22:57 | 13.73380 | -60.90783 | 2105 ft | 162 kts | 88° |
| 2026-05-06 22:57 | 13.73384 | -60.89568 | 2354 ft | 174 kts | 88° |
| 2026-05-06 22:57 | 13.73386 | -60.88281 | 2611 ft | 187 kts | 88° |
| 2026-05-06 22:58 | 13.73434 | -60.86898 | 2867 ft | 201 kts | 79° |
| 2026-05-06 22:58 | 13.74103 | -60.85608 | 3076 ft | 219 kts | 45° |
| 2026-05-06 22:58 | 13.75521 | -60.84843 | 3311 ft | 242 kts | 13° |
| 2026-05-06 22:58 | 13.77251 | -60.84915 | 3608 ft | 263 kts | 350° |
| 2026-05-06 22:59 | 13.79076 | -60.85439 | 4120 ft | 272 kts | 345° |
| 2026-05-06 22:59 | 13.80869 | -60.86024 | 4759 ft | 275 kts | 345° |
| 2026-05-06 22:59 | 13.82702 | -60.86626 | 5424 ft | 277 kts | 344° |
| 2026-05-06 22:59 | 13.84559 | -60.87224 | 6091 ft | 280 kts | 344° |
| 2026-05-06 23:00 | 13.86425 | -60.87821 | 6760 ft | 282 kts | 342° |
| 2026-05-06 23:00 | 13.88161 | -60.88769 | 7381 ft | 287 kts | 326° |
| 2026-05-06 23:00 | 13.89766 | -60.90033 | 8018 ft | 291 kts | 323° |
| 2026-05-06 23:00 | 13.91350 | -60.91335 | 8626 ft | 294 kts | 323° |
| 2026-05-06 23:01 | 13.92957 | -60.92636 | 9221 ft | 296 kts | 323° |
| 2026-05-06 23:01 | 13.94617 | -60.93949 | 9812 ft | 299 kts | 324° |
| 2026-05-06 23:01 | 13.96269 | -60.95235 | 10352 ft | 302 kts | 324° |
| 2026-05-06 23:01 | 13.97983 | -60.96556 | 10625 ft | 316 kts | 324° |
| 2026-05-06 23:02 | 13.99811 | -60.97954 | 10875 ft | 330 kts | 325° |
| 2026-05-06 23:02 | 14.01682 | -60.99381 | 11110 ft | 343 kts | 325° |
| 2026-05-06 23:02 | 14.03651 | -61.00879 | 11335 ft | 356 kts | 325° |
| 2026-05-06 23:02 | 14.05697 | -61.02434 | 11549 ft | 368 kts | 325° |
| 2026-05-06 23:03 | 14.07770 | -61.04010 | 11750 ft | 380 kts | 325° |
| 2026-05-06 23:03 | 14.09921 | -61.05645 | 12048 ft | 388 kts | 325° |
| 2026-05-06 23:03 | 14.12105 | -61.07307 | 12510 ft | 390 kts | 326° |
| 2026-05-06 23:03 | 14.14315 | -61.08989 | 12978 ft | 392 kts | 326° |
| 2026-05-06 23:04 | 14.16509 | -61.10658 | 13428 ft | 394 kts | 326° |
| 2026-05-06 23:04 | 14.18738 | -61.12353 | 13880 ft | 396 kts | 325° |
| 2026-05-06 23:04 | 14.20951 | -61.14036 | 14327 ft | 397 kts | 326° |
| 2026-05-06 23:04 | 14.23178 | -61.15730 | 14764 ft | 399 kts | 325° |
| 2026-05-06 23:05 | 14.25419 | -61.17435 | 15190 ft | 401 kts | 325° |
| 2026-05-06 23:05 | 14.27672 | -61.19152 | 15621 ft | 403 kts | 325° |
| 2026-05-06 23:05 | 14.29921 | -61.20865 | 16050 ft | 404 kts | 325° |
| 2026-05-06 23:05 | 14.32177 | -61.22585 | 16455 ft | 406 kts | 325° |
| 2026-05-06 23:06 | 14.34474 | -61.24337 | 16874 ft | 407 kts | 325° |
| 2026-05-06 23:06 | 14.36753 | -61.26073 | 17272 ft | 409 kts | 325° |
| 2026-05-06 23:06 | 14.39023 | -61.27805 | 17649 ft | 411 kts | 325° |
| 2026-05-06 23:06 | 14.41341 | -61.29572 | 18009 ft | 413 kts | 325° |
| 2026-05-06 23:07 | 14.43658 | -61.31339 | 18329 ft | 415 kts | 325° |
| 2026-05-06 23:07 | 14.45985 | -61.33115 | 18640 ft | 418 kts | 324° |
| 2026-05-06 23:07 | 14.48339 | -61.34911 | 18949 ft | 420 kts | 324° |
| 2026-05-06 23:07 | 14.50702 | -61.36716 | 19246 ft | 423 kts | 324° |
| 2026-05-06 23:08 | 14.53063 | -61.38520 | 19544 ft | 425 kts | 324° |
| 2026-05-06 23:08 | 14.55434 | -61.40331 | 19828 ft | 427 kts | 324° |
| 2026-05-06 23:08 | 14.57827 | -61.42159 | 20094 ft | 429 kts | 324° |
| 2026-05-06 23:08 | 14.60227 | -61.43995 | 20362 ft | 431 kts | 324° |
| 2026-05-06 23:09 | 14.62643 | -61.45843 | 20625 ft | 433 kts | 324° |
| 2026-05-06 23:09 | 14.65092 | -61.47715 | 20880 ft | 435 kts | 324° |
| 2026-05-06 23:09 | 14.67512 | -61.49567 | 21114 ft | 437 kts | 323° |
| 2026-05-06 23:09 | 14.69981 | -61.51457 | 21353 ft | 439 kts | 323° |
| 2026-05-06 23:10 | 14.72429 | -61.53332 | 21595 ft | 441 kts | 323° |
| 2026-05-06 23:10 | 14.74906 | -61.55230 | 21834 ft | 442 kts | 323° |
| 2026-05-06 23:10 | 14.77390 | -61.57133 | 22058 ft | 444 kts | 323° |
| 2026-05-06 23:10 | 14.79890 | -61.59049 | 22278 ft | 446 kts | 323° |
| 2026-05-06 23:11 | 14.82362 | -61.60943 | 22490 ft | 447 kts | 323° |
| 2026-05-06 23:11 | 14.84886 | -61.62879 | 22704 ft | 449 kts | 323° |
| 2026-05-06 23:11 | 14.87382 | -61.64794 | 22913 ft | 451 kts | 323° |
| 2026-05-06 23:11 | 14.89905 | -61.66730 | 23133 ft | 452 kts | 322° |
| 2026-05-06 23:12 | 14.92430 | -61.68668 | 23343 ft | 453 kts | 322° |
| 2026-05-06 23:12 | 14.94999 | -61.70641 | 23553 ft | 455 kts | 322° |
| 2026-05-06 23:12 | 14.97513 | -61.72574 | 23765 ft | 456 kts | 322° |
| 2026-05-06 23:12 | 15.00077 | -61.74543 | 23989 ft | 457 kts | 322° |
| 2026-05-06 23:13 | 15.02649 | -61.76521 | 24201 ft | 458 kts | 322° |
| 2026-05-06 23:13 | 15.05217 | -61.78494 | 24404 ft | 459 kts | 322° |
| 2026-05-06 23:13 | 15.07759 | -61.80450 | 24608 ft | 460 kts | 322° |
| 2026-05-06 23:13 | 15.10331 | -61.82429 | 24805 ft | 461 kts | 322° |
| 2026-05-06 23:14 | 15.12929 | -61.84430 | 25016 ft | 462 kts | 322° |
| 2026-05-06 23:14 | 15.15495 | -61.86408 | 25214 ft | 462 kts | 322° |
| 2026-05-06 23:14 | 15.18073 | -61.88393 | 25466 ft | 462 kts | 322° |
| 2026-05-06 23:14 | 15.20631 | -61.90408 | 25759 ft | 460 kts | 320° |
| 2026-05-06 23:15 | 15.23085 | -61.92543 | 26041 ft | 458 kts | 317° |
| 2026-05-06 23:15 | 15.25405 | -61.94776 | 26312 ft | 456 kts | 314° |
| 2026-05-06 23:15 | 15.27679 | -61.97034 | 26562 ft | 456 kts | 314° |
| 2026-05-06 23:15 | 15.29983 | -61.99335 | 26806 ft | 455 kts | 314° |
| 2026-05-06 23:16 | 15.32277 | -62.01630 | 27040 ft | 455 kts | 314° |
| 2026-05-06 23:16 | 15.34552 | -62.03906 | 27280 ft | 455 kts | 314° |
| 2026-05-06 23:16 | 15.36807 | -62.06159 | 27544 ft | 454 kts | 314° |
| 2026-05-06 23:16 | 15.39089 | -62.08440 | 27831 ft | 453 kts | 314° |
| 2026-05-06 23:17 | 15.41340 | -62.10688 | 28115 ft | 451 kts | 313° |
| 2026-05-06 23:17 | 15.43610 | -62.12957 | 28387 ft | 450 kts | 313° |
| 2026-05-06 23:17 | 15.45869 | -62.15216 | 28618 ft | 451 kts | 313° |
| 2026-05-06 23:17 | 15.48125 | -62.17474 | 28802 ft | 452 kts | 313° |
| 2026-05-06 23:18 | 15.50380 | -62.19729 | 29016 ft | 453 kts | 313° |
| 2026-05-06 23:18 | 15.52646 | -62.21997 | 29236 ft | 453 kts | 313° |
| 2026-05-06 23:18 | 15.54918 | -62.24270 | 29448 ft | 453 kts | 313° |
| 2026-05-06 23:18 | 15.57190 | -62.26545 | 29646 ft | 454 kts | 313° |
| 2026-05-06 23:19 | 15.59471 | -62.28830 | 29847 ft | 455 kts | 313° |
| 2026-05-06 23:19 | 15.61755 | -62.31118 | 30030 ft | 456 kts | 313° |
| 2026-05-06 23:19 | 15.64018 | -62.33387 | 30050 ft | 457 kts | 313° |
| 2026-05-06 23:20 | 15.68616 | -62.37999 | 30059 ft | 458 kts | 313° |
| 2026-05-06 23:20 | 15.73181 | -62.42581 | 30058 ft | 458 kts | 313° |
| 2026-05-06 23:21 | 15.77766 | -62.47184 | 30056 ft | 458 kts | 313° |
| 2026-05-06 23:21 | 15.82330 | -62.51769 | 30060 ft | 457 kts | 313° |
| 2026-05-06 23:22 | 15.86895 | -62.56359 | 30060 ft | 457 kts | 313° |
| 2026-05-06 23:22 | 15.91472 | -62.60963 | 30059 ft | 457 kts | 313° |
| 2026-05-06 23:23 | 15.96020 | -62.65541 | 30059 ft | 457 kts | 313° |
| 2026-05-06 23:23 | 16.00602 | -62.70157 | 30058 ft | 456 kts | 313° |
| 2026-05-06 23:24 | 16.05148 | -62.74742 | 30056 ft | 456 kts | 313° |
| 2026-05-06 23:24 | 16.09708 | -62.79344 | 30060 ft | 456 kts | 313° |
| 2026-05-06 23:25 | 16.14225 | -62.83906 | 30057 ft | 456 kts | 313° |
| 2026-05-06 23:25 | 16.18790 | -62.88520 | 30062 ft | 455 kts | 313° |
| 2026-05-06 23:26 | 16.23322 | -62.93105 | 30055 ft | 455 kts | 313° |
| 2026-05-06 23:26 | 16.27853 | -62.97691 | 30065 ft | 455 kts | 313° |
| 2026-05-06 23:27 | 16.32294 | -63.02392 | 30055 ft | 453 kts | 310° |
| 2026-05-06 23:27 | 16.36588 | -63.07180 | 30060 ft | 453 kts | 310° |
| 2026-05-06 23:28 | 16.40881 | -63.11985 | 30059 ft | 453 kts | 310° |
| 2026-05-06 23:28 | 16.45163 | -63.16779 | 30062 ft | 453 kts | 310° |
| 2026-05-06 23:29 | 16.49464 | -63.21595 | 30054 ft | 452 kts | 311° |
| 2026-05-06 23:29 | 16.53737 | -63.26382 | 30062 ft | 453 kts | 311° |
| 2026-05-06 23:30 | 16.58012 | -63.31177 | 30056 ft | 452 kts | 311° |
| 2026-05-06 23:30 | 16.62309 | -63.36000 | 30058 ft | 452 kts | 311° |
| 2026-05-06 23:31 | 16.66588 | -63.40805 | 30058 ft | 452 kts | 311° |
| 2026-05-06 23:31 | 16.70846 | -63.45589 | 30050 ft | 452 kts | 311° |
| 2026-05-06 23:32 | 16.75138 | -63.50415 | 30059 ft | 452 kts | 311° |
| 2026-05-06 23:32 | 16.79399 | -63.55211 | 30060 ft | 452 kts | 311° |
| 2026-05-06 23:33 | 16.83687 | -63.60041 | 30058 ft | 452 kts | 311° |
| 2026-05-06 23:33 | 16.87950 | -63.64844 | 30059 ft | 452 kts | 311° |
| 2026-05-06 23:34 | 16.92224 | -63.69662 | 30058 ft | 452 kts | 311° |
| 2026-05-06 23:34 | 16.96502 | -63.74491 | 30057 ft | 453 kts | 311° |
| 2026-05-06 23:35 | 17.00779 | -63.79322 | 30056 ft | 454 kts | 311° |
| 2026-05-06 23:35 | 17.05080 | -63.84182 | 30058 ft | 453 kts | 311° |
| 2026-05-06 23:36 | 17.09345 | -63.89006 | 30055 ft | 452 kts | 311° |
| 2026-05-06 23:36 | 17.13615 | -63.93839 | 30057 ft | 453 kts | 311° |
| 2026-05-06 23:37 | 17.17873 | -63.98660 | 30055 ft | 453 kts | 311° |
| 2026-05-06 23:37 | 17.22150 | -64.03510 | 30055 ft | 453 kts | 311° |
| 2026-05-06 23:38 | 17.26441 | -64.08379 | 30057 ft | 452 kts | 311° |
| 2026-05-06 23:38 | 17.30670 | -64.13180 | 30053 ft | 451 kts | 311° |
| 2026-05-06 23:39 | 17.34930 | -64.18021 | 30058 ft | 452 kts | 311° |
| 2026-05-06 23:39 | 17.39197 | -64.22871 | 30056 ft | 452 kts | 311° |
| 2026-05-06 23:40 | 17.43453 | -64.27716 | 30054 ft | 452 kts | 311° |
| 2026-05-06 23:40 | 17.47712 | -64.32568 | 30055 ft | 452 kts | 311° |
| 2026-05-06 23:41 | 17.51959 | -64.37412 | 30056 ft | 451 kts | 311° |
| 2026-05-06 23:41 | 17.56193 | -64.42244 | 30054 ft | 451 kts | 311° |
| 2026-05-06 23:42 | 17.60434 | -64.47079 | 30058 ft | 451 kts | 311° |
| 2026-05-06 23:42 | 17.64670 | -64.51904 | 30057 ft | 450 kts | 311° |
| 2026-05-06 23:43 | 17.68895 | -64.56728 | 30062 ft | 450 kts | 311° |
| 2026-05-06 23:43 | 17.73134 | -64.61574 | 30065 ft | 450 kts | 311° |
| 2026-05-06 23:44 | 17.77349 | -64.66399 | 30072 ft | 450 kts | 311° |
| 2026-05-06 23:44 | 17.81580 | -64.71246 | 30070 ft | 449 kts | 311° |
| 2026-05-06 23:45 | 17.85782 | -64.76063 | 30070 ft | 449 kts | 311° |
| 2026-05-06 23:45 | 17.90017 | -64.80923 | 30069 ft | 449 kts | 311° |
| 2026-05-06 23:46 | 17.94218 | -64.85745 | 30065 ft | 449 kts | 311° |
| 2026-05-06 23:46 | 17.98441 | -64.90594 | 30063 ft | 449 kts | 311° |
| 2026-05-06 23:47 | 18.02669 | -64.95455 | 30061 ft | 449 kts | 310° |
| 2026-05-06 23:47 | 18.06882 | -65.00306 | 30057 ft | 449 kts | 310° |
| 2026-05-06 23:48 | 18.11110 | -65.05178 | 30060 ft | 450 kts | 311° |
| 2026-05-06 23:48 | 18.15321 | -65.10031 | 30060 ft | 449 kts | 311° |
| 2026-05-06 23:49 | 18.19515 | -65.14870 | 30061 ft | 449 kts | 311° |
| 2026-05-06 23:49 | 18.23710 | -65.19714 | 30060 ft | 449 kts | 311° |
| 2026-05-06 23:50 | 18.27928 | -65.24588 | 30061 ft | 449 kts | 311° |
| 2026-05-06 23:50 | 18.34215 | -65.31865 | 30060 ft | 450 kts | 311° |
| 2026-05-06 23:51 | 18.38416 | -65.36723 | 30060 ft | 449 kts | 311° |
| 2026-05-06 23:51 | 18.42648 | -65.41615 | 30060 ft | 449 kts | 311° |
| 2026-05-06 23:52 | 18.46849 | -65.46481 | 30061 ft | 449 kts | 311° |
| 2026-05-06 23:52 | 18.51035 | -65.51335 | 30058 ft | 449 kts | 311° |
| 2026-05-06 23:53 | 18.55224 | -65.56197 | 30060 ft | 450 kts | 311° |
| 2026-05-06 23:53 | 18.59453 | -65.61110 | 30061 ft | 449 kts | 311° |
| 2026-05-06 23:54 | 18.63650 | -65.65992 | 30064 ft | 450 kts | 311° |
| 2026-05-06 23:54 | 18.67825 | -65.70852 | 30064 ft | 450 kts | 311° |
| 2026-05-06 23:55 | 18.72038 | -65.75760 | 30063 ft | 450 kts | 311° |
| 2026-05-06 23:55 | 18.76221 | -65.80637 | 30069 ft | 450 kts | 311° |
| 2026-05-06 23:56 | 18.80438 | -65.85556 | 30070 ft | 450 kts | 311° |
| 2026-05-06 23:56 | 18.84634 | -65.90455 | 30072 ft | 451 kts | 311° |
| 2026-05-06 23:57 | 18.88841 | -65.95372 | 30078 ft | 452 kts | 311° |
| 2026-05-06 23:57 | 18.93031 | -66.00273 | 30078 ft | 452 kts | 311° |
| 2026-05-06 23:58 | 18.97252 | -66.05213 | 30078 ft | 450 kts | 311° |
| 2026-05-06 23:58 | 19.01448 | -66.10132 | 30078 ft | 451 kts | 312° |
| 2026-05-06 23:59 | 19.05630 | -66.15037 | 30080 ft | 450 kts | 312° |
| 2026-05-06 23:59 | 19.09795 | -66.19927 | 30076 ft | 450 kts | 312° |
| 2026-05-07 00:00 | 19.14000 | -66.24869 | 30078 ft | 450 kts | 312° |
| 2026-05-07 00:00 | 19.17551 | -66.28886 | 30077 ft | 449 kts | 315° |
| 2026-05-07 00:01 | 19.22846 | -66.34174 | 30080 ft | 448 kts | 317° |
| 2026-05-07 00:01 | 19.27386 | -66.38661 | 30079 ft | 447 kts | 317° |
| 2026-05-07 00:02 | 19.31927 | -66.43156 | 30079 ft | 447 kts | 317° |
| 2026-05-07 00:02 | 19.36457 | -66.47646 | 30079 ft | 447 kts | 317° |
| 2026-05-07 00:03 | 19.40987 | -66.52145 | 30081 ft | 446 kts | 317° |
| 2026-05-07 00:03 | 19.45510 | -66.56639 | 30082 ft | 446 kts | 317° |
| 2026-05-07 00:04 | 19.50015 | -66.61120 | 30084 ft | 445 kts | 317° |
| 2026-05-07 00:04 | 19.54546 | -66.65630 | 30080 ft | 445 kts | 317° |
| 2026-05-07 00:05 | 19.59052 | -66.70120 | 30083 ft | 445 kts | 317° |
| 2026-05-07 00:05 | 19.63539 | -66.74594 | 30085 ft | 444 kts | 317° |
| 2026-05-07 00:06 | 19.68039 | -66.79084 | 30084 ft | 444 kts | 317° |
| 2026-05-07 00:06 | 19.72526 | -66.83562 | 30085 ft | 444 kts | 317° |
| 2026-05-07 00:07 | 19.77041 | -66.88077 | 30083 ft | 443 kts | 317° |
| 2026-05-07 00:07 | 19.81527 | -66.92565 | 30073 ft | 444 kts | 317° |
| 2026-05-07 00:08 | 19.86015 | -66.97056 | 30067 ft | 443 kts | 317° |
| 2026-05-07 00:08 | 19.90462 | -67.01512 | 30062 ft | 441 kts | 317° |
| 2026-05-07 00:09 | 19.94942 | -67.06003 | 30069 ft | 441 kts | 317° |
| 2026-05-07 00:09 | 19.99391 | -67.10467 | 30062 ft | 440 kts | 317° |
| 2026-05-07 00:10 | 20.03839 | -67.14935 | 30075 ft | 440 kts | 317° |
| 2026-05-07 00:10 | 20.08283 | -67.19403 | 30070 ft | 440 kts | 317° |
| 2026-05-07 00:11 | 20.12735 | -67.23882 | 30072 ft | 440 kts | 318° |
| 2026-05-07 00:11 | 20.17186 | -67.28362 | 30073 ft | 441 kts | 317° |
| 2026-05-07 00:12 | 20.21635 | -67.32844 | 30076 ft | 440 kts | 317° |
| 2026-05-07 00:12 | 20.26080 | -67.37326 | 30076 ft | 440 kts | 317° |
| 2026-05-07 00:13 | 20.30512 | -67.41801 | 30078 ft | 439 kts | 317° |
| 2026-05-07 00:13 | 20.34924 | -67.46259 | 30078 ft | 439 kts | 317° |
| 2026-05-07 00:14 | 20.39367 | -67.50751 | 30077 ft | 438 kts | 317° |
| 2026-05-07 00:14 | 20.43778 | -67.55216 | 30078 ft | 439 kts | 317° |
| 2026-05-07 00:15 | 20.48196 | -67.59689 | 30076 ft | 439 kts | 317° |
| 2026-05-07 00:15 | 20.52626 | -67.64179 | 30076 ft | 438 kts | 317° |
| 2026-05-07 00:16 | 20.57057 | -67.68675 | 30077 ft | 439 kts | 317° |
| 2026-05-07 00:16 | 20.61472 | -67.73159 | 30076 ft | 438 kts | 317° |
| 2026-05-07 00:17 | 20.65895 | -67.77655 | 30078 ft | 437 kts | 317° |
| 2026-05-07 00:17 | 20.70275 | -67.82111 | 30077 ft | 438 kts | 317° |
| 2026-05-07 00:18 | 20.74711 | -67.86625 | 30075 ft | 439 kts | 317° |
| 2026-05-07 00:18 | 20.79098 | -67.91100 | 30076 ft | 438 kts | 317° |
| 2026-05-07 00:19 | 20.83521 | -67.95613 | 30074 ft | 438 kts | 317° |
| 2026-05-07 00:19 | 20.87947 | -68.00111 | 30074 ft | 437 kts | 318° |
| 2026-05-07 00:20 | 20.92361 | -68.04513 | 30079 ft | 437 kts | 318° |
| 2026-05-07 00:20 | 20.96797 | -68.08942 | 30073 ft | 437 kts | 318° |
| 2026-05-07 00:21 | 21.01252 | -68.13402 | 30075 ft | 437 kts | 318° |
| 2026-05-07 00:21 | 21.05694 | -68.17857 | 30072 ft | 437 kts | 318° |
| 2026-05-07 00:22 | 21.10105 | -68.22285 | 30074 ft | 438 kts | 318° |
| 2026-05-07 00:22 | 21.14560 | -68.26763 | 30077 ft | 438 kts | 318° |
| 2026-05-07 00:23 | 21.18991 | -68.31220 | 30077 ft | 437 kts | 318° |
| 2026-05-07 00:23 | 21.23452 | -68.35707 | 30491 ft | 439 kts | 318° |
| 2026-05-07 00:24 | 21.25653 | -68.37927 | 30863 ft | 436 kts | 318° |
| 2026-05-07 00:24 | 21.27862 | -68.40154 | 31169 ft | 435 kts | 319° |
| 2026-05-07 00:24 | 21.30070 | -68.42380 | 31464 ft | 434 kts | 318° |
| 2026-05-07 00:24 | 21.32274 | -68.44603 | 31756 ft | 434 kts | 319° |
| 2026-05-07 00:25 | 21.34448 | -68.46797 | 32028 ft | 433 kts | 319° |
| 2026-05-07 00:25 | 21.36637 | -68.49007 | 32070 ft | 432 kts | 319° |
| 2026-05-07 00:25 | 21.41035 | -68.53447 | 32075 ft | 432 kts | 319° |
| 2026-05-07 00:26 | 21.45402 | -68.57862 | 32072 ft | 432 kts | 319° |
| 2026-05-07 00:26 | 21.49778 | -68.62291 | 32075 ft | 432 kts | 319° |
| 2026-05-07 00:27 | 21.54147 | -68.66716 | 32080 ft | 431 kts | 318° |
| 2026-05-07 00:27 | 21.58514 | -68.71143 | 32080 ft | 432 kts | 319° |
| 2026-05-07 00:28 | 21.62864 | -68.75555 | 32078 ft | 431 kts | 319° |
| 2026-05-07 00:28 | 21.67225 | -68.79984 | 32079 ft | 431 kts | 318° |
| 2026-05-07 00:29 | 21.71569 | -68.84399 | 32079 ft | 430 kts | 319° |
| 2026-05-07 00:30 | 21.80264 | -68.93249 | 32078 ft | 430 kts | 319° |
| 2026-05-07 00:30 | 21.84614 | -68.97683 | 32076 ft | 431 kts | 319° |
| 2026-05-07 00:31 | 21.88951 | -69.02106 | 32076 ft | 431 kts | 319° |
| 2026-05-07 00:31 | 21.93371 | -69.06618 | 32075 ft | 439 kts | 319° |
| 2026-05-07 00:32 | 21.97802 | -69.11144 | 32075 ft | 439 kts | 319° |
| 2026-05-07 00:32 | 22.02207 | -69.15649 | 32078 ft | 440 kts | 319° |
| 2026-05-07 00:33 | 22.06654 | -69.20201 | 32077 ft | 440 kts | 319° |
| 2026-05-07 00:33 | 22.11066 | -69.24721 | 32079 ft | 438 kts | 319° |
| 2026-05-07 00:34 | 22.15483 | -69.29249 | 32078 ft | 439 kts | 319° |
| 2026-05-07 00:34 | 22.19893 | -69.33781 | 32084 ft | 438 kts | 319° |
| 2026-05-07 00:35 | 22.24325 | -69.38329 | 32085 ft | 438 kts | 319° |
| 2026-05-07 00:35 | 22.28721 | -69.42852 | 32082 ft | 436 kts | 319° |
| 2026-05-07 00:36 | 22.33111 | -69.47369 | 32085 ft | 436 kts | 319° |
| 2026-05-07 00:36 | 22.37502 | -69.51895 | 32086 ft | 437 kts | 320° |
| 2026-05-07 00:37 | 22.41896 | -69.56425 | 32089 ft | 437 kts | 320° |
| 2026-05-07 00:37 | 22.46262 | -69.60931 | 32093 ft | 435 kts | 320° |
| 2026-05-07 00:38 | 22.50639 | -69.65458 | 32098 ft | 435 kts | 320° |
| 2026-05-07 00:38 | 22.55148 | -69.70119 | 32096 ft | 435 kts | 319° |
| 2026-05-07 00:39 | 22.59522 | -69.74648 | 32096 ft | 435 kts | 320° |
| 2026-05-07 00:39 | 22.63872 | -69.79162 | 32102 ft | 434 kts | 320° |
| 2026-05-07 00:40 | 22.68239 | -69.83690 | 32104 ft | 434 kts | 320° |
| 2026-05-07 00:40 | 22.72624 | -69.88150 | 32106 ft | 432 kts | 322° |
| 2026-05-07 00:41 | 22.77311 | -69.92188 | 32107 ft | 428 kts | 327° |
| 2026-05-07 00:41 | 22.82207 | -69.95818 | 32109 ft | 427 kts | 329° |
| 2026-05-07 00:42 | 22.87149 | -69.99432 | 32113 ft | 428 kts | 329° |
| 2026-05-07 00:42 | 22.92084 | -70.03045 | 32112 ft | 428 kts | 329° |
| 2026-05-07 00:43 | 22.97022 | -70.06658 | 32111 ft | 427 kts | 329° |
| 2026-05-07 00:43 | 23.01938 | -70.10259 | 32111 ft | 428 kts | 329° |
| 2026-05-07 00:44 | 23.06879 | -70.13886 | 32113 ft | 428 kts | 329° |
| 2026-05-07 00:44 | 23.11807 | -70.17502 | 32117 ft | 428 kts | 329° |
| 2026-05-07 00:45 | 23.16727 | -70.21123 | 32110 ft | 427 kts | 329° |
| 2026-05-07 00:45 | 23.21670 | -70.24758 | 32106 ft | 428 kts | 329° |
| 2026-05-07 00:46 | 23.26594 | -70.28380 | 32109 ft | 428 kts | 329° |
| 2026-05-07 00:46 | 23.31511 | -70.32003 | 32109 ft | 428 kts | 329° |
| 2026-05-07 00:47 | 23.36449 | -70.35648 | 32108 ft | 429 kts | 329° |
| 2026-05-07 00:47 | 23.41393 | -70.39298 | 32106 ft | 429 kts | 329° |
| 2026-05-07 00:48 | 23.46346 | -70.42958 | 32103 ft | 428 kts | 329° |
| 2026-05-07 00:48 | 23.51265 | -70.46598 | 32107 ft | 429 kts | 329° |
| 2026-05-07 00:49 | 23.56203 | -70.50253 | 32106 ft | 429 kts | 329° |
| 2026-05-07 00:49 | 23.61144 | -70.53914 | 32106 ft | 429 kts | 329° |
| 2026-05-07 00:50 | 23.66070 | -70.57569 | 32109 ft | 429 kts | 329° |
| 2026-05-07 00:50 | 23.71019 | -70.61246 | 32108 ft | 429 kts | 329° |
| 2026-05-07 00:51 | 23.75953 | -70.64913 | 32108 ft | 429 kts | 329° |
| 2026-05-07 00:51 | 23.80884 | -70.68581 | 32106 ft | 429 kts | 328° |
| 2026-05-07 00:52 | 23.85819 | -70.72257 | 32110 ft | 430 kts | 328° |
| 2026-05-07 00:52 | 23.90756 | -70.75941 | 32107 ft | 430 kts | 328° |
| 2026-05-07 00:53 | 23.95672 | -70.79611 | 32118 ft | 430 kts | 328° |
| 2026-05-07 00:53 | 24.00629 | -70.83317 | 32115 ft | 429 kts | 328° |
| 2026-05-07 00:54 | 24.05574 | -70.86911 | 32110 ft | 428 kts | 332° |
| 2026-05-07 00:54 | 24.10866 | -70.89854 | 32121 ft | 426 kts | 339° |
| 2026-05-07 00:55 | 24.16474 | -70.91975 | 32116 ft | 425 kts | 346° |
| 2026-05-07 00:55 | 24.22236 | -70.93223 | 32118 ft | 423 kts | 353° |
| 2026-05-07 00:56 | 24.28122 | -70.93863 | 32120 ft | 423 kts | 354° |
| 2026-05-07 00:56 | 24.33990 | -70.94447 | 32117 ft | 423 kts | 354° |
| 2026-05-07 00:57 | 24.39888 | -70.95028 | 32115 ft | 423 kts | 355° |
| 2026-05-07 00:57 | 24.45747 | -70.95609 | 32121 ft | 423 kts | 354° |
| 2026-05-07 00:58 | 24.51631 | -70.96186 | 32118 ft | 424 kts | 354° |
| 2026-05-07 00:58 | 24.57484 | -70.96770 | 32115 ft | 424 kts | 355° |
| 2026-05-07 00:59 | 24.66320 | -70.97644 | 32119 ft | 423 kts | 354° |
| 2026-05-07 01:00 | 24.72195 | -70.98225 | 32115 ft | 424 kts | 354° |
| 2026-05-07 01:00 | 24.78074 | -70.98811 | 32120 ft | 424 kts | 354° |
| 2026-05-07 01:01 | 24.83941 | -70.99395 | 32116 ft | 424 kts | 354° |
| 2026-05-07 01:01 | 24.89829 | -70.99983 | 32116 ft | 425 kts | 354° |
| 2026-05-07 01:02 | 24.95747 | -71.00573 | 32120 ft | 424 kts | 354° |
| 2026-05-07 01:02 | 25.01588 | -71.01502 | 32119 ft | 426 kts | 349° |
| 2026-05-07 01:03 | 25.07392 | -71.02948 | 32114 ft | 426 kts | 347° |
| 2026-05-07 01:03 | 25.13135 | -71.04470 | 32113 ft | 424 kts | 346° |
| 2026-05-07 01:04 | 25.18861 | -71.05999 | 32116 ft | 425 kts | 347° |
| 2026-05-07 01:04 | 25.24600 | -71.07530 | 32114 ft | 425 kts | 347° |
| 2026-05-07 01:05 | 25.30366 | -71.09068 | 32114 ft | 425 kts | 347° |
| 2026-05-07 01:05 | 25.36127 | -71.10610 | 32112 ft | 425 kts | 347° |
| 2026-05-07 01:06 | 25.41850 | -71.12138 | 32115 ft | 423 kts | 346° |
| 2026-05-07 01:06 | 25.47612 | -71.13682 | 32115 ft | 424 kts | 346° |
| 2026-05-07 01:07 | 25.53356 | -71.15221 | 32113 ft | 424 kts | 346° |
| 2026-05-07 01:07 | 25.59104 | -71.16763 | 32114 ft | 424 kts | 346° |
| 2026-05-07 01:08 | 25.64814 | -71.18296 | 32114 ft | 424 kts | 346° |
| 2026-05-07 01:08 | 25.70574 | -71.19846 | 32113 ft | 424 kts | 346° |
| 2026-05-07 01:09 | 25.76288 | -71.21381 | 32114 ft | 424 kts | 346° |
| 2026-05-07 01:09 | 25.82041 | -71.22932 | 32114 ft | 424 kts | 346° |
| 2026-05-07 01:10 | 25.87762 | -71.24477 | 32112 ft | 424 kts | 346° |
| 2026-05-07 01:10 | 25.93524 | -71.26034 | 32114 ft | 424 kts | 346° |
| 2026-05-07 01:11 | 25.99270 | -71.27587 | 32115 ft | 424 kts | 346° |
| 2026-05-07 01:11 | 26.04990 | -71.29133 | 32117 ft | 425 kts | 346° |
| 2026-05-07 01:12 | 26.10768 | -71.30698 | 32118 ft | 425 kts | 346° |
| 2026-05-07 01:12 | 26.16468 | -71.32243 | 32118 ft | 424 kts | 346° |
| 2026-05-07 01:13 | 26.22208 | -71.33800 | 32118 ft | 424 kts | 346° |
| 2026-05-07 01:13 | 26.27934 | -71.35355 | 32119 ft | 423 kts | 346° |
| 2026-05-07 01:14 | 26.33695 | -71.36921 | 32120 ft | 423 kts | 346° |
| 2026-05-07 01:14 | 26.39391 | -71.38472 | 32121 ft | 424 kts | 346° |
| 2026-05-07 01:15 | 26.45152 | -71.40042 | 32121 ft | 423 kts | 346° |
| 2026-05-07 01:15 | 26.50874 | -71.41602 | 32122 ft | 424 kts | 346° |
| 2026-05-07 01:16 | 26.56604 | -71.43166 | 32122 ft | 423 kts | 346° |
| 2026-05-07 01:16 | 26.62339 | -71.44734 | 32124 ft | 424 kts | 346° |
| 2026-05-07 01:17 | 26.68044 | -71.46294 | 32124 ft | 423 kts | 346° |
| 2026-05-07 01:17 | 26.73761 | -71.47862 | 32122 ft | 424 kts | 346° |
| 2026-05-07 01:18 | 26.79514 | -71.49438 | 32124 ft | 423 kts | 346° |
| 2026-05-07 01:18 | 26.85207 | -71.51000 | 32125 ft | 423 kts | 346° |
| 2026-05-07 01:19 | 26.90927 | -71.52572 | 32123 ft | 422 kts | 346° |
| 2026-05-07 01:19 | 26.96647 | -71.54145 | 32125 ft | 423 kts | 346° |
| 2026-05-07 01:20 | 27.02387 | -71.55724 | 32123 ft | 424 kts | 346° |
| 2026-05-07 01:20 | 27.08079 | -71.57294 | 32124 ft | 423 kts | 346° |
| 2026-05-07 01:21 | 27.13788 | -71.58868 | 32125 ft | 423 kts | 346° |
| 2026-05-07 01:21 | 27.19511 | -71.60448 | 32127 ft | 423 kts | 345° |
| 2026-05-07 01:22 | 27.25246 | -71.62035 | 32127 ft | 423 kts | 345° |
| 2026-05-07 01:22 | 27.30971 | -71.63618 | 32127 ft | 423 kts | 345° |
| 2026-05-07 01:23 | 27.36675 | -71.65199 | 32130 ft | 423 kts | 345° |
| 2026-05-07 01:23 | 27.42398 | -71.66787 | 32128 ft | 422 kts | 345° |
| 2026-05-07 01:24 | 27.48110 | -71.68372 | 32129 ft | 423 kts | 345° |
| 2026-05-07 01:24 | 27.53813 | -71.69958 | 32130 ft | 423 kts | 345° |
| 2026-05-07 01:25 | 27.59538 | -71.71551 | 32130 ft | 423 kts | 345° |
| 2026-05-07 01:25 | 27.65239 | -71.73138 | 32133 ft | 422 kts | 345° |
| 2026-05-07 01:26 | 27.70940 | -71.74728 | 32130 ft | 422 kts | 345° |
| 2026-05-07 01:26 | 27.76664 | -71.76324 | 32130 ft | 421 kts | 345° |
| 2026-05-07 01:27 | 27.82363 | -71.77919 | 32134 ft | 422 kts | 345° |
| 2026-05-07 01:27 | 27.88038 | -71.79507 | 32132 ft | 422 kts | 345° |
| 2026-05-07 01:28 | 27.93739 | -71.81102 | 32133 ft | 422 kts | 345° |
| 2026-05-07 01:28 | 27.99463 | -71.82709 | 32134 ft | 421 kts | 345° |
| 2026-05-07 01:29 | 28.05120 | -71.84296 | 32137 ft | 420 kts | 345° |
| 2026-05-07 01:29 | 28.10810 | -71.85899 | 32142 ft | 421 kts | 345° |
| 2026-05-07 01:30 | 28.16513 | -71.87502 | 32142 ft | 421 kts | 345° |
| 2026-05-07 01:30 | 28.22167 | -71.89098 | 32142 ft | 420 kts | 345° |
| 2026-05-07 01:31 | 28.27863 | -71.90706 | 32142 ft | 421 kts | 345° |
| 2026-05-07 01:31 | 28.33582 | -71.92319 | 32146 ft | 421 kts | 345° |
| 2026-05-07 01:32 | 28.39241 | -71.93910 | 32147 ft | 421 kts | 344° |
| 2026-05-07 01:32 | 28.44952 | -71.95523 | 32145 ft | 421 kts | 345° |
| 2026-05-07 01:33 | 28.50612 | -71.97123 | 32147 ft | 422 kts | 345° |
| 2026-05-07 01:33 | 28.56313 | -71.98738 | 32145 ft | 421 kts | 345° |
| 2026-05-07 01:34 | 28.61999 | -72.00352 | 32153 ft | 421 kts | 345° |
| 2026-05-07 01:34 | 28.67682 | -72.01965 | 32150 ft | 420 kts | 344° |
| 2026-05-07 01:35 | 28.73385 | -72.03587 | 32148 ft | 422 kts | 344° |
| 2026-05-07 01:35 | 28.79070 | -72.05207 | 32155 ft | 422 kts | 344° |
| 2026-05-07 01:36 | 28.84769 | -72.06831 | 32155 ft | 422 kts | 344° |
| 2026-05-07 01:36 | 28.90491 | -72.08465 | 32152 ft | 423 kts | 344° |
| 2026-05-07 01:37 | 28.96194 | -72.10094 | 32154 ft | 422 kts | 344° |
| 2026-05-07 01:37 | 29.01907 | -72.11729 | 32153 ft | 423 kts | 344° |
| 2026-05-07 01:38 | 29.07620 | -72.13366 | 32152 ft | 423 kts | 344° |
| 2026-05-07 01:38 | 29.13307 | -72.14996 | 32157 ft | 423 kts | 344° |
| 2026-05-07 01:39 | 29.19038 | -72.16639 | 32155 ft | 422 kts | 344° |
| 2026-05-07 01:39 | 29.24718 | -72.18274 | 32152 ft | 423 kts | 344° |
| 2026-05-07 01:40 | 29.30439 | -72.19916 | 32152 ft | 424 kts | 344° |
| 2026-05-07 01:40 | 29.36174 | -72.21570 | 32150 ft | 423 kts | 344° |
| 2026-05-07 01:41 | 29.41852 | -72.23209 | 32149 ft | 421 kts | 344° |
| 2026-05-07 01:41 | 29.47558 | -72.24857 | 32146 ft | 422 kts | 344° |
| 2026-05-07 01:42 | 29.53280 | -72.26511 | 32145 ft | 423 kts | 343° |
| 2026-05-07 01:42 | 29.58984 | -72.28161 | 32149 ft | 422 kts | 344° |
| 2026-05-07 01:43 | 29.64669 | -72.29807 | 32147 ft | 423 kts | 344° |
| 2026-05-07 01:43 | 29.70393 | -72.31469 | 32151 ft | 423 kts | 344° |
| 2026-05-07 01:44 | 29.76071 | -72.33115 | 32154 ft | 423 kts | 344° |
| 2026-05-07 01:44 | 29.81795 | -72.34781 | 32158 ft | 423 kts | 343° |
| 2026-05-07 01:45 | 29.87506 | -72.36443 | 32160 ft | 423 kts | 343° |
| 2026-05-07 01:45 | 29.93214 | -72.38111 | 32158 ft | 423 kts | 343° |
| 2026-05-07 01:46 | 29.98912 | -72.39774 | 32159 ft | 423 kts | 344° |
| 2026-05-07 01:46 | 30.04643 | -72.41448 | 32159 ft | 423 kts | 344° |
| 2026-05-07 01:47 | 30.10345 | -72.43118 | 32162 ft | 423 kts | 343° |
| 2026-05-07 01:47 | 30.16047 | -72.44791 | 32158 ft | 423 kts | 344° |
| 2026-05-07 01:48 | 30.21740 | -72.46477 | 32155 ft | 422 kts | 343° |
| 2026-05-07 01:48 | 30.27451 | -72.48180 | 32156 ft | 423 kts | 343° |
| 2026-05-07 01:49 | 30.33138 | -72.49878 | 32157 ft | 423 kts | 343° |
| 2026-05-07 01:49 | 30.38836 | -72.51582 | 32155 ft | 422 kts | 343° |
| 2026-05-07 01:50 | 30.44506 | -72.53280 | 32153 ft | 423 kts | 343° |
| 2026-05-07 01:50 | 30.50207 | -72.54990 | 32158 ft | 422 kts | 343° |
| 2026-05-07 01:51 | 30.55907 | -72.56705 | 32149 ft | 421 kts | 343° |
| 2026-05-07 01:51 | 30.61584 | -72.58402 | 32152 ft | 422 kts | 343° |
| 2026-05-07 01:52 | 30.67246 | -72.60101 | 32151 ft | 420 kts | 343° |
| 2026-05-07 01:52 | 30.72916 | -72.61805 | 32152 ft | 420 kts | 343° |
| 2026-05-07 01:53 | 30.78558 | -72.63503 | 32158 ft | 420 kts | 343° |
| 2026-05-07 01:53 | 30.84213 | -72.65210 | 32153 ft | 420 kts | 342° |
| 2026-05-07 01:54 | 30.89875 | -72.66923 | 32146 ft | 420 kts | 343° |
| 2026-05-07 01:54 | 30.95541 | -72.68636 | 32254 ft | 422 kts | 343° |
| 2026-05-07 01:54 | 30.98365 | -72.69490 | 32582 ft | 419 kts | 343° |
| 2026-05-07 01:55 | 31.01194 | -72.70347 | 32976 ft | 416 kts | 342° |
| 2026-05-07 01:55 | 31.03891 | -72.71161 | 33289 ft | 414 kts | 342° |
| 2026-05-07 01:55 | 31.06662 | -72.72001 | 33603 ft | 412 kts | 342° |
| 2026-05-07 01:55 | 31.09458 | -72.72849 | 33925 ft | 410 kts | 342° |
| 2026-05-07 01:56 | 31.12206 | -72.73686 | 34157 ft | 407 kts | 342° |
| 2026-05-07 01:56 | 31.17654 | -72.75339 | 34155 ft | 406 kts | 342° |
| 2026-05-07 01:57 | 31.23117 | -72.77008 | 34152 ft | 405 kts | 342° |
| 2026-05-07 01:57 | 31.28583 | -72.78674 | 34154 ft | 405 kts | 342° |
| 2026-05-07 01:58 | 31.34032 | -72.80336 | 34156 ft | 405 kts | 342° |
| 2026-05-07 01:58 | 31.39465 | -72.81998 | 34151 ft | 405 kts | 341° |
| 2026-05-07 01:59 | 31.44948 | -72.83673 | 34152 ft | 405 kts | 341° |
| 2026-05-07 01:59 | 31.50390 | -72.85339 | 34148 ft | 404 kts | 342° |
| 2026-05-07 02:00 | 31.55826 | -72.87006 | 34150 ft | 404 kts | 341° |
| 2026-05-07 02:00 | 31.61242 | -72.88666 | 34145 ft | 403 kts | 342° |
| 2026-05-07 02:01 | 31.66678 | -72.90340 | 34134 ft | 403 kts | 341° |
| 2026-05-07 02:01 | 31.72071 | -72.91998 | 34128 ft | 404 kts | 342° |
| 2026-05-07 02:02 | 31.77504 | -72.93673 | 34129 ft | 404 kts | 341° |
| 2026-05-07 02:02 | 31.82953 | -72.95355 | 34126 ft | 402 kts | 341° |
| 2026-05-07 02:03 | 31.88370 | -72.97031 | 34127 ft | 404 kts | 341° |
| 2026-05-07 02:03 | 31.93789 | -72.98708 | 34121 ft | 402 kts | 341° |
| 2026-05-07 02:04 | 31.99188 | -73.00381 | 34117 ft | 401 kts | 342° |
| 2026-05-07 02:04 | 32.04609 | -73.02056 | 34117 ft | 402 kts | 341° |
| 2026-05-07 02:05 | 32.10024 | -73.03740 | 34115 ft | 404 kts | 341° |
| 2026-05-07 02:05 | 32.15457 | -73.05429 | 34117 ft | 402 kts | 341° |
| 2026-05-07 02:06 | 32.20849 | -73.07110 | 34119 ft | 402 kts | 341° |
| 2026-05-07 02:06 | 32.26268 | -73.08801 | 34120 ft | 402 kts | 341° |
| 2026-05-07 02:07 | 32.31675 | -73.10488 | 34120 ft | 403 kts | 341° |
| 2026-05-07 02:07 | 32.39807 | -73.13020 | 34115 ft | 401 kts | 341° |
| 2026-05-07 02:08 | 32.45184 | -73.14696 | 34122 ft | 402 kts | 341° |
| 2026-05-07 02:08 | 32.50599 | -73.16396 | 34114 ft | 403 kts | 341° |
| 2026-05-07 02:09 | 32.56002 | -73.18091 | 34119 ft | 402 kts | 341° |
| 2026-05-07 02:09 | 32.61422 | -73.19790 | 34115 ft | 403 kts | 341° |
| 2026-05-07 02:10 | 32.66851 | -73.21496 | 34120 ft | 403 kts | 340° |
| 2026-05-07 02:10 | 32.72271 | -73.23206 | 34114 ft | 403 kts | 341° |
| 2026-05-07 02:11 | 32.77687 | -73.24909 | 34117 ft | 404 kts | 341° |
| 2026-05-07 02:11 | 32.83096 | -73.26619 | 34114 ft | 403 kts | 340° |
| 2026-05-07 02:12 | 32.88538 | -73.28339 | 34114 ft | 402 kts | 340° |
| 2026-05-07 02:12 | 32.93913 | -73.30045 | 34121 ft | 403 kts | 341° |
| 2026-05-07 02:13 | 32.99326 | -73.31758 | 34108 ft | 403 kts | 341° |
| 2026-05-07 02:13 | 33.04745 | -73.33479 | 34110 ft | 402 kts | 341° |
| 2026-05-07 02:14 | 33.10135 | -73.35189 | 34110 ft | 402 kts | 340° |
| 2026-05-07 02:14 | 33.15535 | -73.36911 | 34107 ft | 402 kts | 340° |
| 2026-05-07 02:15 | 33.20950 | -73.38642 | 34107 ft | 402 kts | 341° |
| 2026-05-07 02:15 | 33.26364 | -73.40363 | 34104 ft | 403 kts | 340° |
| 2026-05-07 02:16 | 33.31742 | -73.42077 | 34102 ft | 403 kts | 340° |
| 2026-05-07 02:16 | 33.37177 | -73.43812 | 34098 ft | 404 kts | 340° |
| 2026-05-07 02:17 | 33.42627 | -73.45554 | 34103 ft | 404 kts | 340° |
| 2026-05-07 02:17 | 33.48052 | -73.47292 | 34097 ft | 403 kts | 340° |
| 2026-05-07 02:18 | 33.53477 | -73.49034 | 34093 ft | 403 kts | 340° |
| 2026-05-07 02:18 | 33.58915 | -73.50782 | 34087 ft | 406 kts | 340° |
| 2026-05-07 02:19 | 33.64322 | -73.52522 | 34089 ft | 404 kts | 340° |
| 2026-05-07 02:19 | 33.69769 | -73.54284 | 34090 ft | 404 kts | 340° |
| 2026-05-07 02:20 | 33.75194 | -73.56037 | 34091 ft | 405 kts | 339° |
| 2026-05-07 02:20 | 33.80649 | -73.57803 | 34084 ft | 406 kts | 340° |
| 2026-05-07 02:21 | 33.86066 | -73.59557 | 34078 ft | 404 kts | 340° |
| 2026-05-07 02:21 | 33.91536 | -73.61321 | 34074 ft | 405 kts | 339° |
| 2026-05-07 02:22 | 33.96960 | -73.63075 | 34077 ft | 405 kts | 340° |
| 2026-05-07 02:22 | 34.02407 | -73.64844 | 34070 ft | 407 kts | 339° |
| 2026-05-07 02:23 | 34.07854 | -73.66618 | 34069 ft | 407 kts | 338° |
| 2026-05-07 02:23 | 34.13332 | -73.68406 | 34066 ft | 406 kts | 338° |
| 2026-05-07 02:24 | 34.18798 | -73.70192 | 34064 ft | 407 kts | 339° |
| 2026-05-07 02:24 | 34.24274 | -73.71980 | 34061 ft | 407 kts | 339° |
| 2026-05-07 02:25 | 34.29616 | -73.73990 | 34059 ft | 401 kts | 333° |
| 2026-05-07 02:25 | 34.34631 | -73.76820 | 34057 ft | 397 kts | 326° |
| 2026-05-07 02:26 | 34.39229 | -73.80424 | 34052 ft | 392 kts | 320° |
| 2026-05-07 02:26 | 34.43350 | -73.84712 | 34051 ft | 390 kts | 313° |
| 2026-05-07 02:27 | 34.47159 | -73.89344 | 34048 ft | 389 kts | 312° |
| 2026-05-07 02:27 | 34.50952 | -73.94008 | 34043 ft | 389 kts | 312° |
| 2026-05-07 02:28 | 34.54732 | -73.98686 | 34044 ft | 388 kts | 312° |
| 2026-05-07 02:28 | 34.58497 | -74.03348 | 34041 ft | 389 kts | 312° |
| 2026-05-07 02:29 | 34.62285 | -74.08044 | 34036 ft | 387 kts | 311° |
| 2026-05-07 02:29 | 34.66027 | -74.12694 | 34029 ft | 387 kts | 311° |
| 2026-05-07 02:30 | 34.69778 | -74.17367 | 34023 ft | 387 kts | 312° |
| 2026-05-07 02:30 | 34.73523 | -74.22034 | 34024 ft | 388 kts | 311° |
| 2026-05-07 02:31 | 34.77289 | -74.26730 | 34018 ft | 388 kts | 311° |
| 2026-05-07 02:31 | 34.81048 | -74.31437 | 34017 ft | 389 kts | 311° |
| 2026-05-07 02:32 | 34.84800 | -74.36132 | 34018 ft | 388 kts | 311° |
| 2026-05-07 02:32 | 34.88546 | -74.40826 | 34015 ft | 388 kts | 311° |
| 2026-05-07 02:33 | 34.92307 | -74.45545 | 34012 ft | 388 kts | 310° |
| 2026-05-07 02:33 | 34.96066 | -74.50277 | 34014 ft | 388 kts | 310° |
| 2026-05-07 02:34 | 34.99800 | -74.54981 | 34014 ft | 388 kts | 310° |
| 2026-05-07 02:34 | 35.03538 | -74.59692 | 34011 ft | 387 kts | 310° |
| 2026-05-07 02:35 | 35.07293 | -74.64429 | 34011 ft | 388 kts | 310° |
| 2026-05-07 02:35 | 35.11035 | -74.69169 | 34014 ft | 389 kts | 309° |
| 2026-05-07 02:36 | 35.14805 | -74.73948 | 34011 ft | 389 kts | 310° |
| 2026-05-07 02:36 | 35.18535 | -74.78677 | 34011 ft | 389 kts | 310° |
| 2026-05-07 02:37 | 35.22305 | -74.83456 | 34005 ft | 390 kts | 309° |
| 2026-05-07 02:37 | 35.26047 | -74.88226 | 34004 ft | 390 kts | 309° |
| 2026-05-07 02:38 | 35.29806 | -74.93008 | 34004 ft | 391 kts | 308° |
| 2026-05-07 02:38 | 35.33573 | -74.97817 | 34001 ft | 390 kts | 309° |
| 2026-05-07 02:39 | 35.37329 | -75.02631 | 33995 ft | 391 kts | 309° |
| 2026-05-07 02:39 | 35.41090 | -75.07431 | 33996 ft | 390 kts | 308° |
| 2026-05-07 02:40 | 35.44839 | -75.12220 | 33992 ft | 390 kts | 308° |
| 2026-05-07 02:40 | 35.48573 | -75.17008 | 33991 ft | 390 kts | 308° |
| 2026-05-07 02:41 | 35.52301 | -75.21790 | 33990 ft | 390 kts | 309° |
| 2026-05-07 02:41 | 35.56038 | -75.26600 | 33986 ft | 391 kts | 308° |
| 2026-05-07 02:42 | 35.59809 | -75.31458 | 33987 ft | 390 kts | 308° |
| 2026-05-07 02:42 | 35.63522 | -75.36248 | 33987 ft | 390 kts | 308° |
| 2026-05-07 02:43 | 35.67241 | -75.41056 | 33986 ft | 390 kts | 308° |
| 2026-05-07 02:43 | 35.70983 | -75.45908 | 33986 ft | 388 kts | 308° |
| 2026-05-07 02:44 | 35.74701 | -75.50728 | 33983 ft | 389 kts | 308° |
| 2026-05-07 02:44 | 35.78406 | -75.55534 | 33985 ft | 389 kts | 307° |
| 2026-05-07 02:45 | 35.82112 | -75.60362 | 33979 ft | 388 kts | 307° |
| 2026-05-07 02:45 | 35.85829 | -75.65205 | 33991 ft | 389 kts | 308° |
| 2026-05-07 02:46 | 35.89542 | -75.70019 | 33986 ft | 387 kts | 308° |
| 2026-05-07 02:46 | 35.93248 | -75.74840 | 33981 ft | 387 kts | 307° |
| 2026-05-07 02:47 | 35.96936 | -75.79652 | 33983 ft | 389 kts | 307° |
| 2026-05-07 02:47 | 36.00636 | -75.84485 | 33978 ft | 386 kts | 307° |
| 2026-05-07 02:48 | 36.04303 | -75.89292 | 33972 ft | 386 kts | 306° |
| 2026-05-07 02:48 | 36.07970 | -75.94107 | 33959 ft | 384 kts | 307° |
| 2026-05-07 02:49 | 36.11631 | -75.98919 | 33954 ft | 383 kts | 307° |
| 2026-05-07 02:49 | 36.15282 | -76.03711 | 33949 ft | 384 kts | 306° |
| 2026-05-07 02:50 | 36.19030 | -76.08398 | 33955 ft | 390 kts | 313° |
| 2026-05-07 02:50 | 36.23710 | -76.12009 | 33951 ft | 405 kts | 326° |
| 2026-05-07 02:51 | 36.29218 | -76.14043 | 33956 ft | 429 kts | 340° |
| 2026-05-07 02:51 | 36.32237 | -76.14341 | 33951 ft | 440 kts | 347° |
| 2026-05-07 02:51 | 36.35334 | -76.14078 | 33953 ft | 454 kts | 356° |
| 2026-05-07 02:52 | 36.38450 | -76.13259 | 33957 ft | 467 kts | 1° |
| 2026-05-07 02:52 | 36.41636 | -76.12224 | 33943 ft | 469 kts | 3° |
| 2026-05-07 02:52 | 36.47927 | -76.10062 | 33947 ft | 468 kts | 3° |
| 2026-05-07 02:53 | 36.54192 | -76.07902 | 33946 ft | 469 kts | 3° |
| 2026-05-07 02:53 | 36.60509 | -76.05733 | 33946 ft | 474 kts | 3° |
| 2026-05-07 02:54 | 36.66858 | -76.03551 | 33941 ft | 472 kts | 2° |
| 2026-05-07 02:54 | 36.73196 | -76.01372 | 33934 ft | 474 kts | 2° |
| 2026-05-07 02:55 | 36.79503 | -75.99210 | 33940 ft | 475 kts | 2° |
| 2026-05-07 02:55 | 36.85867 | -75.97012 | 34013 ft | 475 kts | 2° |
| 2026-05-07 02:56 | 36.89038 | -75.95918 | 34310 ft | 474 kts | 2° |
| 2026-05-07 02:56 | 36.92242 | -75.94808 | 34657 ft | 472 kts | 1° |
| 2026-05-07 02:56 | 36.95383 | -75.93718 | 34919 ft | 469 kts | 1° |
| 2026-05-07 02:56 | 36.98505 | -75.92639 | 34922 ft | 471 kts | 1° |
| 2026-05-07 02:57 | 37.04812 | -75.90457 | 34928 ft | 468 kts | 1° |
| 2026-05-07 02:57 | 37.11100 | -75.88277 | 34917 ft | 471 kts | 1° |
| 2026-05-07 02:58 | 37.17433 | -75.86086 | 34916 ft | 473 kts | 1° |
| 2026-05-07 02:58 | 37.23778 | -75.83878 | 34911 ft | 473 kts | 1° |
| 2026-05-07 02:59 | 37.30104 | -75.81662 | 34908 ft | 472 kts | 1° |
| 2026-05-07 02:59 | 37.36400 | -75.79466 | 34906 ft | 472 kts | 1° |
| 2026-05-07 03:00 | 37.42780 | -75.77235 | 34917 ft | 472 kts | 1° |
| 2026-05-07 03:00 | 37.49094 | -75.75024 | 34921 ft | 477 kts | 1° |
| 2026-05-07 03:01 | 37.55475 | -75.72783 | 34930 ft | 478 kts | 2° |
| 2026-05-07 03:01 | 37.61861 | -75.70531 | 34921 ft | 476 kts | 1° |
| 2026-05-07 03:02 | 37.68253 | -75.68286 | 34924 ft | 480 kts | 1° |
| 2026-05-07 03:02 | 37.74624 | -75.66029 | 34923 ft | 478 kts | 2° |
| 2026-05-07 03:03 | 37.81016 | -75.63295 | 34918 ft | 491 kts | 8° |
| 2026-05-07 03:03 | 37.87249 | -75.59585 | 34917 ft | 502 kts | 16° |
| 2026-05-07 03:04 | 37.93217 | -75.54900 | 34915 ft | 508 kts | 22° |
| 2026-05-07 03:04 | 37.99008 | -75.49789 | 34918 ft | 509 kts | 23° |
| 2026-05-07 03:05 | 38.04841 | -75.44656 | 34912 ft | 507 kts | 22° |
| 2026-05-07 03:05 | 38.10657 | -75.39831 | 34911 ft | 500 kts | 19° |
| 2026-05-07 03:06 | 38.16565 | -75.35091 | 34911 ft | 504 kts | 19° |
| 2026-05-07 03:06 | 38.22580 | -75.30856 | 34910 ft | 492 kts | 12° |
| 2026-05-07 03:07 | 38.28895 | -75.27776 | 34909 ft | 480 kts | 3° |
| 2026-05-07 03:07 | 38.35259 | -75.25895 | 34911 ft | 463 kts | 355° |
| 2026-05-07 03:08 | 38.41642 | -75.24607 | 34910 ft | 466 kts | 354° |
| 2026-05-07 03:08 | 38.48042 | -75.23304 | 34914 ft | 468 kts | 355° |
| 2026-05-07 03:09 | 38.54437 | -75.21956 | 34912 ft | 463 kts | 355° |
| 2026-05-07 03:09 | 38.60823 | -75.20603 | 34913 ft | 472 kts | 356° |
| 2026-05-07 03:10 | 38.67270 | -75.18427 | 34908 ft | 492 kts | 6° |
| 2026-05-07 03:10 | 38.73629 | -75.14792 | 34910 ft | 511 kts | 16° |
| 2026-05-07 03:11 | 38.79532 | -75.09758 | 34913 ft | 512 kts | 25° |
| 2026-05-07 03:11 | 38.85169 | -75.04161 | 34910 ft | 513 kts | 25° |
| 2026-05-07 03:12 | 38.90792 | -74.98568 | 34909 ft | 513 kts | 25° |
| 2026-05-07 03:12 | 38.96454 | -74.92976 | 34911 ft | 514 kts | 25° |
| 2026-05-07 03:13 | 39.02120 | -74.87385 | 34910 ft | 514 kts | 25° |
| 2026-05-07 03:13 | 39.07785 | -74.81786 | 34918 ft | 516 kts | 25° |
| 2026-05-07 03:14 | 39.13367 | -74.75974 | 34916 ft | 518 kts | 28° |
| 2026-05-07 03:14 | 39.18850 | -74.70024 | 34797 ft | 516 kts | 28° |
| 2026-05-07 03:15 | 39.21594 | -74.67043 | 34238 ft | 516 kts | 28° |
| 2026-05-07 03:15 | 39.24327 | -74.64091 | 33229 ft | 523 kts | 28° |
| 2026-05-07 03:15 | 39.27130 | -74.61074 | 32032 ft | 533 kts | 30° |
| 2026-05-07 03:15 | 39.29973 | -74.58003 | 30971 ft | 540 kts | 30° |
| 2026-05-07 03:16 | 39.32875 | -74.54846 | 30002 ft | 542 kts | 31° |
| 2026-05-07 03:16 | 39.35736 | -74.51722 | 29137 ft | 542 kts | 32° |
| 2026-05-07 03:16 | 39.38578 | -74.48614 | 28202 ft | 544 kts | 32° |
| 2026-05-07 03:16 | 39.41478 | -74.45445 | 27185 ft | 547 kts | 32° |
| 2026-05-07 03:17 | 39.44345 | -74.42312 | 26292 ft | 546 kts | 32° |
| 2026-05-07 03:17 | 39.47236 | -74.39151 | 25304 ft | 546 kts | 31° |
| 2026-05-07 03:17 | 39.50128 | -74.35986 | 24305 ft | 547 kts | 31° |
| 2026-05-07 03:17 | 39.53029 | -74.32811 | 23624 ft | 539 kts | 32° |
| 2026-05-07 03:18 | 39.55848 | -74.29723 | 22949 ft | 533 kts | 32° |
| 2026-05-07 03:18 | 39.58659 | -74.26638 | 22255 ft | 527 kts | 33° |
| 2026-05-07 03:18 | 39.61441 | -74.23588 | 21638 ft | 520 kts | 33° |
| 2026-05-07 03:18 | 39.64167 | -74.20589 | 21061 ft | 511 kts | 33° |
| 2026-05-07 03:19 | 39.66833 | -74.17655 | 20470 ft | 504 kts | 33° |
| 2026-05-07 03:19 | 39.69484 | -74.14740 | 19825 ft | 498 kts | 34° |
| 2026-05-07 03:19 | 39.72113 | -74.11842 | 19199 ft | 491 kts | 34° |
| 2026-05-07 03:19 | 39.74680 | -74.09010 | 18584 ft | 484 kts | 34° |
| 2026-05-07 03:20 | 39.77229 | -74.06187 | 17985 ft | 477 kts | 34° |
| 2026-05-07 03:20 | 39.79726 | -74.03426 | 17387 ft | 470 kts | 35° |
| 2026-05-07 03:20 | 39.82196 | -74.00723 | 16703 ft | 464 kts | 33° |
| 2026-05-07 03:20 | 39.84755 | -73.98286 | 16010 ft | 457 kts | 28° |
| 2026-05-07 03:21 | 39.87442 | -73.96171 | 15559 ft | 443 kts | 24° |
| 2026-05-07 03:21 | 39.90098 | -73.94276 | 15103 ft | 434 kts | 23° |
| 2026-05-07 03:21 | 39.92760 | -73.92419 | 14648 ft | 426 kts | 23° |
| 2026-05-07 03:21 | 39.95343 | -73.90617 | 14196 ft | 419 kts | 24° |
| 2026-05-07 03:22 | 39.97849 | -73.88855 | 13784 ft | 411 kts | 24° |
| 2026-05-07 03:22 | 40.00276 | -73.87137 | 13424 ft | 403 kts | 24° |
| 2026-05-07 03:22 | 40.02689 | -73.85392 | 13058 ft | 397 kts | 26° |
| 2026-05-07 03:22 | 40.05039 | -73.83528 | 12697 ft | 391 kts | 27° |
| 2026-05-07 03:23 | 40.07328 | -73.81673 | 12288 ft | 385 kts | 27° |
| 2026-05-07 03:23 | 40.09573 | -73.79849 | 11903 ft | 380 kts | 27° |
| 2026-05-07 03:23 | 40.11813 | -73.78017 | 11595 ft | 372 kts | 27° |
| 2026-05-07 03:23 | 40.13972 | -73.76253 | 11389 ft | 361 kts | 27° |
| 2026-05-07 03:24 | 40.16068 | -73.74538 | 11214 ft | 350 kts | 27° |
| 2026-05-07 03:24 | 40.18093 | -73.72866 | 11033 ft | 340 kts | 27° |
| 2026-05-07 03:24 | 40.20057 | -73.71234 | 10799 ft | 333 kts | 27° |
| 2026-05-07 03:24 | 40.22008 | -73.69616 | 10433 ft | 330 kts | 27° |
| 2026-05-07 03:25 | 40.23936 | -73.68085 | 10048 ft | 326 kts | 21° |
| 2026-05-07 03:25 | 40.26002 | -73.66962 | 9663 ft | 320 kts | 13° |
| 2026-05-07 03:25 | 40.28130 | -73.66038 | 9259 ft | 318 kts | 12° |
| 2026-05-07 03:25 | 40.30210 | -73.65140 | 8892 ft | 316 kts | 12° |
| 2026-05-07 03:26 | 40.32290 | -73.64211 | 8539 ft | 314 kts | 13° |
| 2026-05-07 03:26 | 40.34328 | -73.63272 | 8175 ft | 312 kts | 13° |
| 2026-05-07 03:26 | 40.36359 | -73.62310 | 7838 ft | 308 kts | 14° |
| 2026-05-07 03:26 | 40.38354 | -73.61359 | 7449 ft | 307 kts | 14° |
| 2026-05-07 03:27 | 40.40349 | -73.60396 | 7097 ft | 304 kts | 14° |
| 2026-05-07 03:27 | 40.42326 | -73.59445 | 6696 ft | 302 kts | 14° |
| 2026-05-07 03:27 | 40.44304 | -73.58498 | 6359 ft | 300 kts | 14° |
| 2026-05-07 03:27 | 40.46242 | -73.57562 | 5985 ft | 298 kts | 15° |
| 2026-05-07 03:28 | 40.48177 | -73.56628 | 5646 ft | 295 kts | 15° |
| 2026-05-07 03:28 | 40.50101 | -73.55694 | 5325 ft | 290 kts | 14° |
| 2026-05-07 03:28 | 40.51973 | -73.54787 | 5059 ft | 282 kts | 15° |
| 2026-05-07 03:28 | 40.53816 | -73.54147 | 4609 ft | 265 kts | 353° |
| 2026-05-07 03:29 | 40.55461 | -73.54746 | 4163 ft | 238 kts | 317° |
| 2026-05-07 03:29 | 40.56365 | -73.56385 | 3729 ft | 217 kts | 285° |
| 2026-05-07 03:29 | 40.56764 | -73.58258 | 3304 ft | 211 kts | 284° |
| 2026-05-07 03:29 | 40.57262 | -73.60004 | 2838 ft | 197 kts | 293° |
| 2026-05-07 03:30 | 40.57871 | -73.61549 | 2532 ft | 190 kts | 298° |
| 2026-05-07 03:30 | 40.58538 | -73.63039 | 2313 ft | 184 kts | 299° |
| 2026-05-07 03:30 | 40.59165 | -73.64407 | 2104 ft | 169 kts | 299° |
| 2026-05-07 03:30 | 40.59750 | -73.65696 | 1875 ft | 155 kts | 299° |
| 2026-05-07 03:31 | 40.60274 | -73.66856 | 1645 ft | 142 kts | 300° |
| 2026-05-07 03:31 | 40.60766 | -73.67947 | 1439 ft | 138 kts | 300° |
| 2026-05-07 03:31 | 40.61254 | -73.69034 | 1249 ft | 137 kts | 300° |
| 2026-05-07 03:31 | 40.61737 | -73.70101 | 1076 ft | 137 kts | 300° |
| 2026-05-07 03:32 | 40.62221 | -73.71172 | 901 ft | 136 kts | 300° |
| 2026-05-07 03:32 | 40.62706 | -73.72246 | 727 ft | 136 kts | 300° |
| 2026-05-07 03:32 | 40.63191 | -73.73317 | 546 ft | 135 kts | 301° |
| 2026-05-07 03:32 | 40.63664 | -73.74374 | 355 ft | 135 kts | 300° |
| 2026-05-07 03:33 | 40.64144 | -73.75424 | 194 ft | 133 kts | 301° |
| 2026-05-07 03:33 | 40.64619 | -73.76470 | 25 ft | 129 kts | 301° |
| 2026-05-07 03:33 | 40.65019 | -73.77351 | 15 ft | 88 kts | 300° |
| 2026-05-07 03:33 | 40.65247 | -73.77852 | 15 ft | 39 kts | 299° |
| 2026-05-07 03:34 | 40.65308 | -73.78067 | 15 ft | 12 kts | 275° |
| 2026-05-07 03:34 | 40.65272 | -73.78151 | 15 ft | 11 kts | 176° |
| 2026-05-07 03:34 | 40.65216 | -73.78069 | 15 ft | 12 kts | 121° |
| 2026-05-07 03:34 | 40.65170 | -73.77987 | 15 ft | 8 kts | 156° |
| 2026-05-07 03:35 | 40.65107 | -73.77991 | 15 ft | 9 kts | 167° |
| 2026-05-07 03:35 | 40.65059 | -73.77924 | 15 ft | 11 kts | 120° |
| 2026-05-07 03:35 | 40.65013 | -73.77820 | 15 ft | 13 kts | 121° |
| 2026-05-07 03:35 | 40.64962 | -73.77711 | 15 ft | 14 kts | 121° |
| 2026-05-07 03:36 | 40.64912 | -73.77600 | 15 ft | 10 kts | 121° |
| 2026-05-07 03:36 | 40.64920 | -73.77528 | 15 ft | 9 kts | 44° |
| 2026-05-07 03:36 | 40.64977 | -73.77540 | 15 ft | 12 kts | 304° |
| 2026-05-07 03:36 | 40.65028 | -73.77653 | 15 ft | 17 kts | 300° |
| 2026-05-07 03:37 | 40.65106 | -73.77824 | 15 ft | 24 kts | 301° |
| 2026-05-07 03:37 | 40.65194 | -73.78019 | 15 ft | 25 kts | 301° |
| 2026-05-07 03:37 | 40.65282 | -73.78213 | 15 ft | 23 kts | 301° |
| 2026-05-07 03:37 | 40.65355 | -73.78373 | 15 ft | 11 kts | 300° |
| 2026-05-07 03:38 | 40.65355 | -73.78460 | 15 ft | 10 kts | 248° |
| 2026-05-07 03:38 | 40.65313 | -73.78578 | 15 ft | 17 kts | 242° |
| 2026-05-07 03:38 | 40.65246 | -73.78735 | 15 ft | 20 kts | 241° |
| 2026-05-07 03:38 | 40.65215 | -73.78864 | 15 ft | 8 kts | 252° |
| 2026-05-07 03:39 | 40.65163 | -73.78904 | 15 ft | 12 kts | 187° |
| 2026-05-07 03:39 | 40.65065 | -73.78919 | 15 ft | 12 kts | 200° |
| 2026-05-07 03:39 | 40.65004 | -73.79013 | 15 ft | 15 kts | 239° |
| 2026-05-07 03:39 | 40.64941 | -73.79160 | 15 ft | 20 kts | 241° |
| 2026-05-07 03:40 | 40.64873 | -73.79319 | 15 ft | 16 kts | 240° |
| 2026-05-07 03:40 | 40.64832 | -73.79414 | 15 ft | 11 kts | 240° |
| 2026-05-07 03:40 | 40.64802 | -73.79450 | 15 ft | 5 kts | 186° |
| 2026-05-07 03:40 | 40.64772 | -73.79439 | 15 ft | 4 kts | 154° |
| 2026-05-07 03:41 | 40.64755 | -73.79426 | 15 ft | 2 kts | 151° |
| 2026-05-07 03:41 | 40.64749 | -73.79422 | 15 ft | 1 kts | 150° |
| 2026-05-07 03:41 | 40.64740 | -73.79415 | 15 ft | 0 kts | 150° |